createdAt,value
2018-07-03T00:01:45.981Z,1.20
2018-07-03T00:04:15.383Z,1.00
2018-07-03T00:06:44.880Z,1.30
2018-07-03T00:09:14.334Z,1.27
2018-07-03T00:11:43.775Z,1.20
2018-07-03T00:14:13.196Z,1.10
2018-07-03T00:16:47.897Z,1.40
2018-07-03T00:19:17.587Z,1.10
2018-07-03T00:21:47.034Z,1.33
2018-07-03T00:24:16.509Z,1.00
2018-07-03T00:26:45.923Z,1.10
2018-07-03T00:29:15.379Z,0.90
2018-07-03T00:31:45.298Z,0.80
2018-07-03T00:34:14.743Z,1.00
2018-07-03T00:36:44.153Z,1.17
2018-07-03T00:39:14.393Z,1.20
2018-07-03T00:41:43.732Z,1.03
2018-07-03T00:44:13.153Z,0.90
2018-07-03T00:46:42.602Z,1.10
2018-07-03T00:49:12.033Z,1.23
2018-07-03T00:51:41.476Z,0.90
2018-07-03T00:54:10.912Z,1.07
2018-07-03T00:56:40.317Z,1.40
2018-07-03T00:59:09.716Z,1.27
2018-07-03T01:01:39.366Z,1.40
2018-07-03T01:04:08.691Z,1.10
2018-07-03T01:06:38.123Z,1.03
2018-07-03T01:09:09.379Z,0.80
2018-07-03T01:11:40.057Z,1.17
2018-07-03T01:14:09.515Z,1.00
2018-07-03T01:16:38.970Z,1.00
2018-07-03T01:19:08.436Z,0.90
2018-07-03T01:21:37.857Z,1.00
2018-07-03T01:24:07.295Z,1.40
2018-07-03T01:26:36.729Z,1.07
2018-07-03T01:29:06.183Z,1.20
2018-07-03T01:31:35.641Z,1.23
2018-07-03T01:34:05.294Z,1.00
2018-07-03T01:36:34.673Z,0.90
2018-07-03T01:39:04.892Z,1.10
2018-07-03T01:41:34.433Z,1.40
2018-07-03T01:44:03.842Z,1.00
2018-07-03T01:46:33.210Z,1.17
2018-07-03T01:49:02.632Z,1.20
2018-07-03T01:51:32.123Z,1.33
2018-07-03T01:54:01.779Z,1.33
2018-07-03T01:56:31.148Z,1.27
2018-07-03T01:59:00.535Z,1.00
2018-07-03T02:01:29.935Z,1.37
2018-07-03T02:03:59.426Z,1.13
2018-07-03T02:06:28.516Z,1.10
2018-07-03T02:08:57.897Z,1.20
2018-07-03T02:11:27.428Z,1.40
2018-07-03T02:13:57.006Z,1.20
2018-07-03T02:16:26.473Z,1.13
2018-07-03T02:18:55.848Z,1.37
2018-07-03T02:21:25.276Z,1.23
2018-07-03T02:23:54.690Z,1.40
2018-07-03T02:26:24.139Z,2.57
2018-07-03T02:28:53.646Z,1.03
2018-07-03T02:31:23.296Z,1.17
2018-07-03T02:33:53.100Z,1.50
2018-07-03T02:36:22.729Z,1.23
2018-07-03T02:38:52.165Z,1.30
2018-07-03T02:41:21.732Z,1.30
2018-07-03T02:43:51.296Z,1.43
2018-07-03T02:46:20.773Z,1.10
2018-07-03T02:48:50.261Z,1.57
2018-07-03T02:51:30.772Z,1.13
2018-07-03T02:54:00.222Z,1.47
2018-07-03T02:56:29.633Z,1.50
2018-07-03T02:58:59.048Z,1.20
2018-07-03T03:01:28.562Z,1.23
2018-07-03T03:03:58.053Z,0.97
2018-07-03T03:06:27.473Z,1.17
2018-07-03T03:08:56.843Z,1.03
2018-07-03T03:11:26.264Z,1.17
2018-07-03T03:13:56.944Z,1.27
2018-07-03T03:16:26.367Z,1.17
2018-07-03T03:18:55.880Z,0.83
2018-07-03T03:21:25.276Z,0.90
2018-07-03T03:23:54.691Z,1.93
2018-07-03T03:26:24.073Z,1.33
2018-07-03T03:28:53.473Z,1.20
2018-07-03T03:31:22.904Z,0.97
2018-07-03T03:33:52.342Z,1.03
2018-07-03T03:36:21.767Z,1.10
2018-07-03T03:38:51.153Z,1.03
2018-07-03T03:41:20.592Z,1.37
2018-07-03T03:43:50.004Z,1.00
2018-07-03T03:46:19.423Z,1.27
2018-07-03T03:48:48.884Z,0.90
2018-07-03T03:51:18.353Z,0.83
2018-07-03T03:53:47.812Z,0.80
2018-07-03T03:56:17.213Z,1.33
2018-07-03T03:58:46.596Z,1.17
2018-07-03T04:01:16.004Z,1.27
2018-07-03T04:03:45.407Z,0.90
2018-07-03T04:06:14.977Z,1.17
2018-07-03T04:08:44.430Z,1.70
2018-07-03T04:11:13.785Z,1.10
2018-07-03T04:13:43.208Z,1.10
2018-07-03T04:16:12.575Z,0.90
2018-07-03T04:18:42.013Z,1.63
2018-07-03T04:21:11.410Z,1.27
2018-07-03T04:23:40.813Z,1.30
2018-07-03T04:26:10.237Z,1.63
2018-07-03T04:28:39.704Z,1.20
2018-07-03T04:31:09.111Z,1.33
2018-07-03T04:33:38.500Z,1.53
2018-07-03T04:36:07.904Z,1.67
2018-07-03T04:38:37.380Z,1.80
2018-07-03T04:41:06.901Z,1.40
2018-07-03T04:43:36.311Z,1.93
2018-07-03T04:46:05.744Z,1.53
2018-07-03T04:48:35.131Z,1.90
2018-07-03T04:51:05.388Z,2.03
2018-07-03T04:53:34.823Z,2.10
2018-07-03T04:56:04.291Z,2.00
2018-07-03T04:58:33.672Z,2.00
2018-07-03T05:01:03.119Z,1.73
2018-07-03T05:03:32.504Z,1.70
2018-07-03T05:06:02.046Z,1.50
2018-07-03T05:08:31.439Z,1.50
2018-07-03T05:11:00.920Z,1.73
2018-07-03T05:13:30.271Z,1.53
2018-07-03T05:15:59.762Z,1.37
2018-07-03T05:18:29.241Z,1.70
2018-07-03T05:20:58.626Z,1.60
2018-07-03T05:23:27.991Z,1.30
2018-07-03T05:25:57.392Z,1.20
2018-07-03T05:28:26.808Z,1.20
2018-07-03T05:30:56.240Z,1.20
2018-07-03T05:33:25.662Z,1.30
2018-07-03T05:35:55.085Z,1.33
2018-07-03T05:38:24.781Z,1.40
2018-07-03T05:40:54.033Z,1.57
2018-07-03T05:43:23.371Z,1.37
2018-07-03T05:45:52.750Z,1.53
2018-07-03T05:48:22.170Z,1.20
2018-07-03T05:50:51.539Z,1.50
2018-07-03T05:53:20.944Z,1.00
2018-07-03T05:55:50.345Z,1.00
2018-07-03T05:58:19.770Z,0.80
2018-07-03T06:00:49.191Z,0.80
2018-07-03T06:03:18.713Z,1.73
2018-07-03T06:05:48.156Z,0.70
2018-07-03T06:08:17.617Z,0.50
2018-07-03T06:10:47.037Z,0.70
2018-07-03T06:13:16.474Z,0.40
2018-07-03T06:15:46.099Z,0.50
2018-07-03T06:18:15.501Z,0.40
2018-07-03T06:20:45.167Z,0.30
2018-07-03T06:23:14.523Z,0.43
2018-07-03T06:25:43.980Z,0.43
2018-07-03T06:28:13.371Z,0.40
2018-07-03T06:30:43.107Z,0.40
2018-07-03T06:33:12.529Z,0.40
2018-07-03T06:35:41.892Z,0.50
2018-07-03T06:38:12.095Z,0.30
2018-07-03T06:40:41.553Z,0.60
2018-07-03T06:43:11.195Z,0.50
2018-07-03T06:45:40.698Z,0.50
2018-07-03T06:48:10.131Z,0.77
2018-07-03T06:50:39.482Z,0.63
2018-07-03T06:53:08.873Z,0.60
2018-07-03T06:55:38.344Z,0.40
2018-07-03T06:58:07.818Z,0.60
2018-07-03T07:00:37.182Z,0.70
2018-07-03T07:03:06.646Z,0.73
2018-07-03T07:05:36.095Z,0.90
2018-07-03T07:08:05.579Z,1.10
2018-07-03T07:10:34.928Z,0.80
2018-07-03T07:13:04.398Z,0.80
2018-07-03T07:15:33.855Z,0.87
2018-07-03T07:18:03.349Z,1.00
2018-07-03T07:20:32.766Z,0.63
2018-07-03T07:23:02.191Z,1.10
2018-07-03T07:25:31.692Z,1.17
2018-07-03T07:28:01.212Z,0.80
2018-07-03T07:30:30.580Z,0.80
2018-07-03T07:32:59.947Z,1.10
2018-07-03T07:35:29.376Z,0.80
2018-07-03T07:37:58.774Z,0.60
2018-07-03T07:40:28.158Z,0.80
2018-07-03T07:42:57.588Z,0.70
2018-07-03T07:45:27.047Z,0.70
2018-07-03T07:47:56.461Z,0.77
2018-07-03T07:50:25.956Z,0.50
2018-07-03T07:52:55.701Z,0.70
2018-07-03T07:55:25.142Z,0.80
2018-07-03T07:57:54.572Z,0.70
2018-07-03T08:00:24.013Z,0.60
2018-07-03T08:02:53.482Z,0.77
2018-07-03T08:05:22.993Z,0.70
2018-07-03T08:07:52.410Z,0.60
2018-07-03T08:10:21.811Z,0.73
2018-07-03T08:12:51.233Z,0.93
2018-07-03T08:15:20.717Z,0.80
2018-07-03T08:17:50.135Z,0.90
2018-07-03T08:20:25.925Z,1.10
2018-07-03T08:22:56.029Z,0.60
2018-07-03T08:25:25.464Z,0.90
2018-07-03T08:27:54.862Z,0.60
2018-07-03T08:30:24.291Z,0.70
2018-07-03T08:32:53.656Z,0.50
2018-07-03T08:35:23.043Z,0.50
2018-07-03T08:37:52.484Z,0.70
2018-07-03T08:40:21.910Z,0.63
2018-07-03T08:42:51.342Z,0.50
2018-07-03T08:45:20.741Z,0.87
2018-07-03T08:47:50.162Z,0.30
2018-07-03T08:50:19.564Z,0.40
2018-07-03T08:52:48.969Z,0.83
2018-07-03T08:55:18.435Z,0.30
2018-07-03T08:57:47.850Z,0.30
2018-07-03T09:00:17.240Z,0.40
2018-07-03T09:02:46.644Z,0.30
2018-07-03T09:05:15.999Z,0.30
2018-07-03T09:07:45.351Z,0.30
2018-07-03T09:10:14.733Z,0.33
2018-07-03T09:12:44.172Z,0.40
2018-07-03T09:15:13.554Z,0.30
2018-07-03T09:17:42.974Z,0.40
2018-07-03T09:20:12.537Z,0.30
2018-07-03T09:22:41.956Z,0.30
2018-07-03T09:25:11.372Z,0.30
2018-07-03T09:27:40.741Z,0.30
2018-07-03T09:30:10.237Z,0.40
2018-07-03T09:32:39.678Z,0.40
2018-07-03T09:35:09.127Z,0.33
2018-07-03T09:37:38.554Z,0.40
2018-07-03T09:40:07.940Z,0.40
2018-07-03T09:42:37.350Z,0.40
2018-07-03T09:45:08.155Z,0.50
2018-07-03T09:47:37.663Z,0.30
2018-07-03T09:50:07.182Z,0.30
2018-07-03T09:52:36.564Z,0.30
2018-07-03T09:55:06.062Z,0.50
2018-07-03T09:57:35.492Z,0.70
2018-07-03T10:00:05.317Z,0.40
2018-07-03T10:02:34.713Z,0.50
2018-07-03T10:05:04.647Z,0.40
2018-07-03T10:07:33.782Z,0.60
2018-07-03T10:10:03.308Z,0.33
2018-07-03T10:12:32.724Z,0.70
2018-07-03T10:15:02.145Z,0.40
2018-07-03T10:17:31.592Z,0.50
2018-07-03T10:20:00.981Z,0.40
2018-07-03T10:22:30.415Z,0.50
2018-07-03T10:24:59.847Z,0.50
2018-07-03T10:27:29.331Z,0.50
2018-07-03T10:29:58.805Z,0.60
2018-07-03T10:32:28.253Z,0.50
2018-07-03T10:34:57.754Z,0.63
2018-07-03T10:37:27.171Z,1.07
2018-07-03T10:39:56.656Z,0.60
2018-07-03T10:42:26.050Z,0.70
2018-07-03T10:44:55.455Z,0.60
2018-07-03T10:47:24.893Z,0.50
2018-07-03T10:49:54.220Z,0.70
2018-07-03T10:52:23.710Z,0.80
2018-07-03T10:54:53.165Z,0.80
2018-07-03T10:57:22.659Z,0.80
2018-07-03T10:59:52.037Z,1.03
2018-07-03T11:02:21.487Z,0.70
2018-07-03T11:04:50.879Z,1.50
2018-07-03T11:07:20.338Z,0.83
2018-07-03T11:09:49.757Z,1.00
2018-07-03T11:12:19.168Z,0.70
2018-07-03T11:14:48.577Z,0.80
2018-07-03T11:17:18.008Z,0.90
2018-07-03T11:19:47.533Z,0.90
2018-07-03T11:22:16.964Z,1.40
2018-07-03T11:24:46.460Z,0.90
2018-07-03T11:27:15.944Z,0.80
2018-07-03T11:29:45.361Z,0.77
2018-07-03T11:32:14.792Z,1.10
2018-07-03T11:34:44.138Z,1.00
2018-07-03T11:37:13.532Z,2.80
2018-07-03T11:39:43.003Z,5.70
2018-07-03T11:42:12.443Z,3.50
2018-07-03T11:44:41.918Z,7.13
2018-07-03T11:47:11.292Z,6.80
2018-07-03T11:49:40.757Z,6.50
2018-07-03T11:52:10.228Z,6.70
2018-07-03T11:54:39.815Z,7.40
2018-07-03T11:57:09.289Z,3.60
2018-07-03T11:59:38.699Z,2.30
2018-07-03T12:02:08.145Z,3.00
2018-07-03T12:04:37.830Z,3.50
2018-07-03T12:07:07.270Z,2.67
2018-07-03T12:09:36.754Z,1.20
2018-07-03T12:12:06.125Z,0.90
2018-07-03T12:14:35.308Z,1.00
2018-07-03T12:17:04.782Z,0.97
2018-07-03T12:19:34.202Z,1.00
2018-07-03T12:22:03.665Z,0.93
2018-07-03T12:24:33.135Z,1.00
2018-07-03T12:27:02.539Z,0.70
2018-07-03T12:29:31.948Z,0.70
2018-07-03T12:32:01.480Z,0.60
2018-07-03T12:34:30.856Z,1.20
2018-07-03T12:37:00.349Z,0.57
2018-07-03T12:39:29.778Z,1.10
2018-07-03T12:41:59.163Z,1.27
2018-07-03T12:44:28.646Z,2.67
2018-07-03T12:46:57.792Z,5.80
2018-07-03T12:49:27.119Z,5.10
2018-07-03T12:51:56.519Z,2.53
2018-07-03T12:54:25.952Z,2.57
2018-07-03T12:56:55.301Z,5.80
2018-07-03T12:59:24.712Z,3.97
2018-07-03T13:01:54.153Z,5.60
2018-07-03T13:04:23.542Z,6.33
2018-07-03T13:06:52.927Z,6.50
2018-07-03T13:09:22.361Z,3.77
2018-07-03T13:11:51.855Z,2.97
2018-07-03T13:14:21.233Z,2.37
2018-07-03T13:16:50.661Z,2.40
2018-07-03T13:19:20.246Z,1.20
2018-07-03T13:21:49.687Z,1.17
2018-07-03T13:24:19.065Z,0.97
2018-07-03T13:26:48.462Z,0.90
2018-07-03T13:29:18.238Z,0.90
2018-07-03T13:31:47.858Z,0.73
2018-07-03T13:34:17.282Z,0.70
2018-07-03T13:36:46.663Z,1.00
2018-07-03T13:39:16.043Z,0.70
2018-07-03T13:41:45.458Z,0.60
2018-07-03T13:44:14.850Z,0.60
2018-07-03T13:46:44.260Z,0.77
2018-07-03T13:49:13.710Z,0.77
2018-07-03T13:51:43.056Z,0.70
2018-07-03T13:54:12.666Z,0.60
2018-07-03T13:56:42.157Z,0.90
2018-07-03T13:59:11.551Z,0.70
2018-07-03T14:01:40.952Z,0.70
2018-07-03T14:04:10.152Z,0.70
2018-07-03T14:06:39.524Z,0.77
2018-07-03T14:09:09.805Z,0.63
2018-07-03T14:11:39.317Z,0.53
2018-07-03T14:14:08.901Z,0.60
2018-07-03T14:16:38.320Z,0.80
2018-07-03T14:19:07.855Z,0.60
2018-07-03T14:21:37.293Z,0.60
2018-07-03T14:24:06.804Z,0.80
2018-07-03T14:26:36.279Z,0.57
2018-07-03T14:29:05.683Z,0.50
2018-07-03T14:31:35.084Z,0.60
2018-07-03T14:34:04.500Z,0.63
2018-07-03T14:36:33.844Z,0.77
2018-07-03T14:39:03.302Z,0.73
2018-07-03T14:41:32.699Z,0.67
2018-07-03T14:44:02.112Z,0.60
2018-07-03T14:46:31.492Z,0.83
2018-07-03T14:49:00.925Z,0.50
2018-07-03T14:51:30.379Z,0.73
2018-07-03T14:53:59.771Z,0.80
2018-07-03T14:56:29.171Z,0.80
2018-07-03T14:58:58.569Z,0.50
2018-07-03T15:01:27.950Z,0.63
2018-07-03T15:03:57.472Z,0.60
2018-07-03T15:06:26.911Z,0.83
2018-07-03T15:08:56.363Z,0.67
2018-07-03T15:11:25.790Z,0.93
2018-07-03T15:13:55.366Z,0.70
2018-07-03T15:16:24.841Z,0.90
2018-07-03T15:18:59.546Z,0.70
2018-07-03T15:21:28.919Z,0.90
2018-07-03T15:23:58.296Z,0.60
2018-07-03T15:26:27.688Z,0.63
2018-07-03T15:28:57.061Z,0.90
2018-07-03T15:31:26.631Z,0.80
2018-07-03T15:33:56.023Z,0.70
2018-07-03T15:36:25.431Z,1.10
2018-07-03T15:38:54.809Z,0.70
2018-07-03T15:41:24.184Z,0.70
2018-07-03T15:44:10.470Z,0.70
2018-07-03T15:46:39.882Z,0.70
2018-07-03T15:49:09.247Z,0.53
2018-07-03T15:51:38.657Z,1.17
2018-07-03T15:54:08.031Z,0.97
2018-07-03T15:56:37.412Z,0.80
2018-07-03T15:59:07.031Z,1.20
2018-07-03T16:01:36.473Z,0.83
2018-07-03T16:05:23.004Z,0.73
2018-07-03T16:08:11.200Z,0.90
2018-07-03T16:10:40.593Z,0.80
2018-07-03T16:13:10.198Z,0.90
2018-07-03T16:15:39.593Z,1.00
2018-07-03T16:18:08.960Z,1.00
2018-07-03T16:20:39.754Z,1.20
2018-07-03T16:23:09.584Z,1.20
2018-07-03T16:25:39.182Z,0.80
2018-07-03T16:28:08.550Z,0.60
2018-07-03T16:30:38.042Z,0.80
2018-07-03T16:33:07.487Z,0.70
2018-07-03T16:35:36.940Z,1.00
2018-07-03T16:38:06.478Z,1.00
2018-07-03T16:40:35.873Z,0.80
2018-07-03T16:43:05.654Z,1.10
2018-07-03T16:45:35.112Z,1.20
2018-07-03T16:48:04.463Z,1.00
2018-07-03T16:50:33.973Z,1.33
2018-07-03T16:53:03.395Z,0.73
2018-07-03T16:55:32.856Z,0.90
2018-07-03T16:58:02.278Z,1.00
2018-07-03T17:00:31.928Z,1.00
2018-07-03T17:03:01.355Z,0.50
2018-07-03T17:05:30.754Z,0.80
2018-07-03T17:08:00.333Z,1.00
2018-07-03T17:10:30.841Z,1.03
2018-07-03T17:13:00.198Z,1.10
2018-07-03T17:15:29.617Z,0.80
2018-07-03T17:17:59.060Z,0.70
2018-07-03T17:20:28.443Z,0.80
2018-07-03T17:22:58.018Z,0.60
2018-07-03T17:25:27.451Z,0.90
2018-07-03T17:27:56.935Z,1.10
2018-07-03T17:30:26.347Z,1.30
2018-07-03T17:32:55.733Z,0.70
2018-07-03T17:35:25.177Z,0.80
2018-07-03T17:37:54.905Z,1.20
2018-07-03T17:40:41.398Z,0.90
2018-07-03T17:43:29.083Z,0.73
2018-07-03T17:46:08.249Z,0.77
2018-07-03T17:48:37.687Z,1.30
2018-07-03T17:51:07.089Z,1.00
2018-07-03T17:53:36.474Z,0.90
2018-07-03T17:56:05.909Z,0.73
2018-07-03T17:58:35.627Z,0.90
2018-07-03T18:01:05.069Z,1.23
2018-07-03T18:03:34.544Z,0.90
2018-07-03T18:06:03.925Z,1.20
2018-07-03T18:08:33.304Z,1.00
2018-07-03T18:11:02.845Z,0.93
2018-07-03T18:13:32.315Z,1.10
2018-07-03T18:16:01.729Z,0.80
2018-07-03T18:18:31.128Z,0.83
2018-07-03T18:21:00.558Z,1.10
2018-07-03T18:23:30.059Z,1.00
2018-07-03T18:25:59.468Z,0.93
2018-07-03T18:28:28.960Z,1.47
2018-07-03T18:30:58.373Z,0.97
2018-07-03T18:33:27.769Z,0.90
2018-07-03T18:35:57.151Z,0.90
2018-07-03T18:38:26.495Z,0.80
2018-07-03T18:40:55.909Z,0.80
2018-07-03T18:43:25.373Z,1.40
2018-07-03T18:45:54.756Z,1.30
2018-07-03T18:48:24.172Z,2.17
2018-07-03T18:50:53.629Z,1.40
2018-07-03T18:53:23.012Z,1.00
2018-07-03T18:55:52.445Z,1.20
2018-07-03T18:58:21.905Z,1.00
2018-07-03T19:00:51.420Z,1.30
2018-07-03T19:03:20.901Z,1.10
2018-07-03T19:05:50.276Z,1.07
2018-07-03T19:08:19.525Z,1.07
2018-07-03T19:10:49.004Z,1.80
2018-07-03T19:13:18.387Z,1.57
2018-07-03T19:15:47.773Z,1.30
2018-07-03T19:18:17.582Z,1.70
2018-07-03T19:20:47.036Z,1.40
2018-07-03T19:23:16.497Z,1.47
2018-07-03T19:25:46.117Z,1.10
2018-07-03T19:28:15.586Z,0.97
2018-07-03T19:30:45.052Z,1.20
2018-07-03T19:33:14.472Z,1.07
2018-07-03T19:35:43.875Z,1.10
2018-07-03T19:38:13.366Z,1.00
2018-07-03T19:40:43.004Z,1.57
2018-07-03T19:43:50.847Z,1.67
2018-07-03T19:46:20.218Z,1.73
2018-07-03T19:48:49.607Z,1.23
2018-07-03T19:51:19.023Z,1.10
2018-07-03T19:53:48.438Z,1.00
2018-07-03T19:56:17.882Z,1.43
2018-07-03T19:58:47.324Z,1.40
2018-07-03T20:01:16.805Z,1.30
2018-07-03T20:03:46.230Z,1.53
2018-07-03T20:06:15.601Z,1.30
2018-07-03T20:08:45.038Z,1.20
2018-07-03T20:11:14.479Z,1.10
2018-07-03T20:13:43.899Z,1.20
2018-07-03T20:16:13.288Z,1.13
2018-07-03T20:18:42.856Z,0.97
2018-07-03T20:21:12.241Z,0.80
2018-07-03T20:23:41.612Z,1.07
2018-07-03T20:26:11.171Z,1.10
2018-07-03T20:28:40.858Z,1.07
2018-07-03T20:31:10.313Z,1.33
2018-07-03T20:33:39.721Z,1.10
2018-07-03T20:36:09.126Z,1.30
2018-07-03T20:38:38.617Z,1.70
2018-07-03T20:41:09.283Z,1.90
2018-07-03T20:43:40.951Z,1.80
2018-07-03T20:46:10.960Z,1.60
2018-07-03T20:48:40.398Z,2.50
2018-07-03T20:51:09.853Z,2.20
2018-07-03T20:53:39.256Z,2.00
2018-07-03T20:56:08.712Z,1.70
2018-07-03T20:58:38.147Z,1.77
2018-07-03T21:01:07.659Z,2.53
2018-07-03T21:03:37.056Z,2.40
2018-07-03T21:06:06.887Z,2.00
2018-07-03T21:08:36.283Z,1.70
2018-07-03T21:11:05.877Z,2.20
2018-07-03T21:13:35.360Z,1.63
2018-07-03T21:16:04.784Z,1.13
2018-07-03T21:18:34.214Z,1.37
2018-07-03T21:21:03.653Z,1.50
2018-07-03T21:23:33.055Z,1.10
2018-07-03T21:26:02.514Z,1.47
2018-07-03T21:28:31.657Z,1.43
2018-07-03T21:31:01.060Z,1.43
2018-07-03T21:33:30.475Z,1.50
2018-07-03T21:35:59.887Z,1.23
2018-07-03T21:38:29.316Z,1.80
2018-07-03T21:40:58.674Z,2.60
2018-07-03T21:43:28.074Z,2.40
2018-07-03T21:45:57.439Z,2.37
2018-07-03T21:48:26.894Z,2.03
2018-07-03T21:50:56.297Z,2.23
2018-07-03T21:53:25.800Z,2.10
2018-07-03T21:55:55.312Z,1.63
2018-07-03T21:58:24.698Z,1.60
2018-07-03T22:00:54.118Z,1.33
2018-07-03T22:03:23.540Z,1.60
2018-07-03T22:05:52.988Z,1.33
2018-07-03T22:08:22.388Z,2.37
2018-07-03T22:10:51.787Z,1.30
2018-07-03T22:13:21.157Z,1.20
2018-07-03T22:15:50.548Z,1.90
2018-07-03T22:18:20.019Z,1.83
2018-07-03T22:20:49.385Z,1.17
2018-07-03T22:23:18.854Z,1.60
2018-07-03T22:25:48.278Z,1.47
2018-07-03T22:28:17.624Z,1.67
2018-07-03T22:30:47.005Z,1.40
2018-07-03T22:33:16.345Z,1.50
2018-07-03T22:35:45.747Z,1.30
2018-07-03T22:38:15.159Z,1.20
2018-07-03T22:40:44.565Z,1.30
2018-07-03T22:43:14.091Z,1.40
2018-07-03T22:45:43.506Z,1.40
2018-07-03T22:48:13.093Z,1.57
2018-07-03T22:50:42.523Z,1.57
2018-07-03T22:53:12.253Z,1.60
2018-07-03T22:55:41.624Z,1.90
2018-07-03T22:58:11.049Z,1.77
2018-07-03T23:00:40.463Z,1.47
2018-07-03T23:03:10.019Z,1.40
2018-07-03T23:05:39.547Z,1.87
2018-07-03T23:08:08.938Z,1.47
2018-07-03T23:10:38.464Z,1.73
2018-07-03T23:13:07.882Z,1.57
2018-07-03T23:15:37.252Z,1.10
2018-07-03T23:18:06.407Z,1.20
2018-07-03T23:20:35.774Z,1.70
2018-07-03T23:23:05.289Z,1.43
2018-07-03T23:25:34.748Z,1.30
2018-07-03T23:28:04.179Z,1.53
2018-07-03T23:30:33.556Z,1.40
2018-07-03T23:33:02.980Z,1.40
2018-07-03T23:35:32.536Z,1.20
2018-07-03T23:38:01.921Z,1.80
2018-07-03T23:40:31.319Z,1.50
2018-07-03T23:43:00.735Z,1.30
2018-07-03T23:45:53.015Z,1.30
2018-07-03T23:48:39.293Z,1.40
2018-07-03T23:51:25.843Z,1.73
2018-07-03T23:54:12.071Z,1.33
2018-07-03T23:56:59.246Z,1.20
2018-07-03T23:59:45.736Z,1.30
